createdAt,value
2017-12-01T00:01:43.712Z,96335.63
2017-12-01T00:04:11.220Z,96327.40
2017-12-01T00:06:38.737Z,96329.00
2017-12-01T00:09:06.320Z,96333.24
2017-12-01T00:11:33.835Z,96339.81
2017-12-01T00:14:01.394Z,96346.34
2017-12-01T00:16:28.968Z,96349.10
2017-12-01T00:18:56.528Z,96338.22
2017-12-01T00:21:24.101Z,96347.43
2017-12-01T00:23:51.667Z,96340.15
2017-12-01T00:26:19.181Z,96348.88
2017-12-01T00:28:46.702Z,96346.87
2017-12-01T00:31:14.403Z,96346.66
2017-12-01T00:33:41.911Z,96354.27
2017-12-01T00:36:09.440Z,96343.87
2017-12-01T00:38:36.999Z,96346.42
2017-12-01T00:41:04.502Z,96349.88
2017-12-01T00:43:32.525Z,96349.98
2017-12-01T00:46:01.005Z,96357.20
2017-12-01T00:48:28.976Z,96353.28
2017-12-01T00:50:56.533Z,96350.87
2017-12-01T00:53:24.299Z,96350.83
2017-12-01T00:55:51.806Z,96352.84
2017-12-01T00:58:19.332Z,96348.11
2017-12-01T01:00:47.077Z,96351.84
2017-12-01T01:03:14.648Z,96346.94
2017-12-01T01:05:42.226Z,96344.60
2017-12-01T01:08:09.783Z,96347.30
2017-12-01T01:10:37.293Z,96352.75
2017-12-01T01:13:04.814Z,96360.55
2017-12-01T01:15:32.518Z,96354.70
2017-12-01T01:18:00.038Z,96366.66
2017-12-01T01:20:27.554Z,96376.72
2017-12-01T01:22:55.503Z,96369.41
2017-12-01T01:25:23.030Z,96366.23
2017-12-01T01:27:50.547Z,96369.52
2017-12-01T01:32:45.141Z,96378.48
2017-12-01T01:35:12.701Z,96383.35
2017-12-01T01:37:40.445Z,96379.48
2017-12-01T01:40:07.961Z,96382.65
2017-12-01T01:42:35.494Z,96387.00
2017-12-01T01:45:03.252Z,96387.09
2017-12-01T01:47:30.805Z,96384.17
2017-12-01T01:49:58.327Z,96384.66
2017-12-01T01:52:25.920Z,96379.68
2017-12-01T01:54:53.434Z,96389.80
2017-12-01T01:57:20.967Z,96382.59
2017-12-01T01:59:48.535Z,96385.95
2017-12-01T02:02:16.054Z,96383.92
2017-12-01T02:04:43.614Z,96385.88
2017-12-01T02:07:11.174Z,96386.30
2017-12-01T02:09:38.687Z,96388.05
2017-12-01T02:12:06.204Z,96387.54
2017-12-01T02:14:34.055Z,96382.88
2017-12-01T02:17:01.574Z,96392.92
2017-12-01T02:19:29.164Z,96396.17
2017-12-01T02:21:56.813Z,96397.32
2017-12-01T02:24:24.334Z,96398.66
2017-12-01T02:26:51.859Z,96392.19
2017-12-01T02:29:19.493Z,96399.23
2017-12-01T02:31:47.006Z,96397.33
2017-12-01T02:34:14.525Z,96402.34
2017-12-01T02:36:42.378Z,96398.73
2017-12-01T02:39:09.938Z,96398.38
2017-12-01T02:41:37.450Z,96401.33
2017-12-01T02:44:05.014Z,96408.67
2017-12-01T02:46:32.522Z,96400.49
2017-12-01T02:49:00.088Z,96407.56
2017-12-01T02:51:27.854Z,96402.92
2017-12-01T02:53:55.411Z,96405.81
2017-12-01T02:56:22.973Z,96407.20
2017-12-01T02:58:50.549Z,96410.77
2017-12-01T03:01:18.089Z,96404.80
2017-12-01T03:03:45.649Z,96410.20
2017-12-01T03:06:14.231Z,96417.72
2017-12-01T03:08:41.791Z,96411.73
2017-12-01T03:11:09.298Z,96420.00
2017-12-01T03:13:36.938Z,96423.77
2017-12-01T03:16:04.475Z,96419.46
2017-12-01T03:18:32.026Z,96422.66
2017-12-01T03:20:59.598Z,96425.42
2017-12-01T03:23:27.143Z,96433.18
2017-12-01T03:25:54.691Z,96437.19
2017-12-01T03:28:22.365Z,96442.01
2017-12-01T03:30:49.877Z,96434.61
2017-12-01T03:33:17.412Z,96440.73
2017-12-01T03:35:45.144Z,96439.30
2017-12-01T03:38:12.699Z,96446.50
2017-12-01T03:40:40.208Z,96437.90
2017-12-01T03:43:07.906Z,96448.68
2017-12-01T03:45:35.422Z,96455.00
2017-12-01T03:48:02.944Z,96456.68
2017-12-01T03:50:30.806Z,96468.70
2017-12-01T03:52:58.318Z,96462.64
2017-12-01T03:55:25.835Z,96467.19
2017-12-01T03:57:53.692Z,96466.69
2017-12-01T04:00:21.209Z,96464.06
2017-12-01T04:02:48.730Z,96467.47
2017-12-01T04:05:16.279Z,96465.30
2017-12-01T04:07:43.799Z,96462.73
2017-12-01T04:10:11.315Z,96472.59
2017-12-01T04:12:38.887Z,96468.91
2017-12-01T04:15:06.650Z,96478.80
2017-12-01T04:17:34.185Z,96481.98
2017-12-01T04:20:02.168Z,96484.55
2017-12-01T04:22:29.689Z,96491.39
2017-12-01T04:24:57.270Z,96491.39
2017-12-01T04:27:24.850Z,96492.78
2017-12-01T04:29:52.410Z,96493.59
2017-12-01T04:32:19.958Z,96495.40
2017-12-01T04:34:47.665Z,96496.59
2017-12-01T04:39:41.990Z,96501.34
2017-12-01T04:42:09.942Z,96502.63
2017-12-01T04:44:37.475Z,96504.58
2017-12-01T04:47:05.026Z,96508.53
2017-12-01T04:49:32.841Z,96511.61
2017-12-01T04:52:00.346Z,96510.97
2017-12-01T04:54:27.858Z,96518.50
2017-12-01T04:56:55.721Z,96522.67
2017-12-01T04:59:23.284Z,96517.06
2017-12-01T05:01:50.840Z,96521.25
2017-12-01T05:04:18.407Z,96528.51
2017-12-01T05:06:45.963Z,96529.62
2017-12-01T05:09:13.520Z,96533.86
2017-12-01T05:11:41.280Z,96536.67
2017-12-01T05:14:08.819Z,96541.24
2017-12-01T05:16:36.331Z,96546.55
2017-12-01T05:19:04.238Z,96544.52
2017-12-01T05:21:31.750Z,96553.63
2017-12-01T05:23:59.280Z,96551.61
2017-12-01T05:26:27.044Z,96559.06
2017-12-01T05:28:54.554Z,96560.87
2017-12-01T05:31:22.075Z,96566.70
2017-12-01T05:33:49.646Z,96565.58
2017-12-01T05:36:17.178Z,96570.30
2017-12-01T05:38:44.755Z,96570.42
2017-12-01T05:41:12.456Z,96577.80
2017-12-01T05:43:39.974Z,96582.89
2017-12-01T05:46:07.519Z,96587.95
2017-12-01T05:48:35.384Z,96588.44
2017-12-01T05:51:02.944Z,96595.52
2017-12-01T05:53:30.450Z,96593.66
2017-12-01T05:55:58.002Z,96596.16
2017-12-01T05:58:25.514Z,96604.41
2017-12-01T06:00:53.022Z,96604.03
2017-12-01T06:03:20.651Z,96602.43
2017-12-01T06:05:48.216Z,96607.43
2017-12-01T06:08:15.725Z,96609.22
2017-12-01T06:10:43.361Z,96608.44
2017-12-01T06:13:10.877Z,96612.97
2017-12-01T06:15:38.390Z,96618.56
2017-12-01T06:18:06.094Z,96622.63
2017-12-01T06:20:33.610Z,96622.44
2017-12-01T06:23:01.135Z,96618.45
2017-12-01T06:25:28.695Z,96619.60
2017-12-01T06:27:56.229Z,96624.41
2017-12-01T06:30:23.740Z,96636.14
2017-12-01T06:32:51.314Z,96630.41
2017-12-01T06:35:18.826Z,96622.79
2017-12-01T06:37:46.362Z,96635.31
2017-12-01T06:40:14.061Z,96627.37
2017-12-01T06:42:41.581Z,96631.44
2017-12-01T06:45:09.144Z,96637.63
2017-12-01T06:47:36.686Z,96636.50
2017-12-01T06:50:04.207Z,96650.62
2017-12-01T06:52:31.723Z,96642.80
2017-12-01T06:54:59.278Z,96649.44
2017-12-01T06:57:26.833Z,96656.61
2017-12-01T06:59:54.392Z,96662.63
2017-12-01T07:02:22.158Z,96666.31
2017-12-01T07:04:49.717Z,96668.55
2017-12-01T07:07:17.255Z,96664.75
2017-12-01T07:09:45.023Z,96669.28
2017-12-01T07:12:12.538Z,96676.33
2017-12-01T07:14:40.051Z,96677.52
2017-12-01T07:17:07.604Z,96677.05
2017-12-01T07:19:35.134Z,96677.52
2017-12-01T07:22:02.663Z,96683.61
2017-12-01T07:24:30.470Z,96684.39
2017-12-01T07:27:07.986Z,96686.84
2017-12-01T07:29:35.957Z,96690.97
2017-12-01T07:32:03.559Z,96695.13
2017-12-01T07:34:31.137Z,96701.34
2017-12-01T07:36:58.823Z,96707.55
2017-12-01T07:39:26.326Z,96714.73
2017-12-01T07:41:53.866Z,96720.93
2017-12-01T07:44:37.091Z,96720.56
2017-12-01T07:47:04.614Z,96722.70
2017-12-01T07:49:32.138Z,96724.33
2017-12-01T07:51:59.837Z,96718.44
2017-12-01T07:54:27.358Z,96723.02
2017-12-01T07:56:54.877Z,96725.53
2017-12-01T07:59:22.414Z,96728.88
2017-12-01T08:01:49.941Z,96737.37
2017-12-01T08:04:17.525Z,96737.41
2017-12-01T08:06:45.297Z,96747.22
2017-12-01T08:09:12.811Z,96752.95
2017-12-01T08:11:40.327Z,96754.92
2017-12-01T08:14:08.198Z,96760.69
2017-12-01T08:16:47.611Z,96772.28
2017-12-01T08:19:21.315Z,96775.20
2017-12-01T08:22:01.177Z,96779.38
2017-12-01T08:24:41.446Z,96781.17
2017-12-01T08:27:09.413Z,96787.48
2017-12-01T08:29:37.484Z,96795.42
2017-12-01T08:32:05.506Z,96792.84
2017-12-01T08:34:34.185Z,96797.58
2017-12-01T08:37:01.763Z,96801.56
2017-12-01T08:39:29.640Z,96804.50
2017-12-01T08:41:57.233Z,96803.65
2017-12-01T08:44:24.897Z,96803.59
2017-12-01T08:46:53.061Z,96814.48
2017-12-01T08:49:20.627Z,96814.19
2017-12-01T08:51:48.826Z,96813.17
2017-12-01T08:54:16.967Z,96818.00
2017-12-01T08:56:44.526Z,96823.72
2017-12-01T08:59:12.169Z,96822.18
2017-12-01T09:01:39.980Z,96829.87
2017-12-01T09:04:10.274Z,96827.25
2017-12-01T09:06:38.804Z,96834.52
2017-12-01T09:09:06.608Z,96834.95
2017-12-01T09:11:34.199Z,96842.59
2017-12-01T09:14:01.724Z,96832.33
2017-12-01T09:16:29.484Z,96838.86
2017-12-01T09:18:57.063Z,96838.13
2017-12-01T09:21:26.569Z,96845.49
2017-12-01T09:23:54.141Z,96846.81
2017-12-01T09:26:21.736Z,96853.25
2017-12-01T09:28:50.215Z,96861.14
2017-12-01T09:31:17.953Z,96850.12
2017-12-01T09:33:45.575Z,96854.13
2017-12-01T09:36:13.488Z,96851.73
2017-12-01T09:38:41.508Z,96862.28
2017-12-01T09:41:09.092Z,96862.58
2017-12-01T09:43:36.651Z,96868.75
2017-12-01T09:46:04.486Z,96872.53
2017-12-01T09:48:32.076Z,96876.01
2017-12-01T09:50:59.652Z,96886.11
2017-12-01T09:53:27.379Z,96888.09
2017-12-01T09:55:54.890Z,96889.16
2017-12-01T09:58:22.406Z,96889.14
2017-12-01T10:00:50.073Z,96892.98
2017-12-01T10:03:17.634Z,96885.80
2017-12-01T10:05:45.191Z,96893.45
2017-12-01T10:08:13.153Z,96898.70
2017-12-01T10:10:40.796Z,96893.17
2017-12-01T10:13:08.317Z,96892.71
2017-12-01T10:15:36.043Z,96897.84
2017-12-01T10:18:03.603Z,96900.89
2017-12-01T10:20:31.123Z,96899.14
2017-12-01T10:22:58.771Z,96899.98
2017-12-01T10:25:26.297Z,96899.61
2017-12-01T10:27:53.838Z,96899.91
2017-12-01T10:30:21.750Z,96898.40
2017-12-01T10:32:49.264Z,96895.84
2017-12-01T10:35:16.775Z,96901.69
2017-12-01T10:37:44.597Z,96901.73
2017-12-01T10:40:12.146Z,96898.94
2017-12-01T10:42:39.651Z,96888.95
2017-12-01T10:45:07.469Z,96896.41
2017-12-01T10:47:35.029Z,96895.38
2017-12-01T10:50:02.588Z,96897.67
2017-12-01T10:52:30.162Z,96897.80
2017-12-01T10:54:57.706Z,96898.73
2017-12-01T10:57:25.223Z,96894.30
2017-12-01T10:59:52.926Z,96899.58
2017-12-01T11:02:20.486Z,96898.92
2017-12-01T11:04:48.044Z,96907.77
2017-12-01T11:07:16.556Z,96901.13
2017-12-01T11:09:44.083Z,96904.23
2017-12-01T11:12:11.642Z,96908.20
2017-12-01T11:14:39.427Z,96905.97
2017-12-01T11:17:06.954Z,96909.05
2017-12-01T11:19:34.536Z,96906.72
2017-12-01T11:22:02.267Z,96910.16
2017-12-01T11:24:29.794Z,96916.22
2017-12-01T11:26:57.324Z,96907.16
2017-12-01T11:29:24.890Z,96911.48
2017-12-01T11:31:52.412Z,96912.44
2017-12-01T11:34:19.982Z,96914.61
2017-12-01T11:36:47.747Z,96919.70
2017-12-01T11:39:15.282Z,96918.48
2017-12-01T11:41:42.824Z,96923.80
2017-12-01T11:44:10.703Z,96924.81
2017-12-01T11:46:38.219Z,96928.58
2017-12-01T11:49:05.730Z,96930.67
2017-12-01T11:51:33.274Z,96925.52
2017-12-01T11:54:00.796Z,96930.24
2017-12-01T11:56:28.333Z,96927.80
2017-12-01T11:58:55.900Z,96928.66
2017-12-01T12:01:23.422Z,96926.39
2017-12-01T12:03:50.936Z,96935.19
2017-12-01T12:06:18.661Z,96939.89
2017-12-01T12:08:46.222Z,96939.39
2017-12-01T12:11:13.731Z,96944.00
2017-12-01T12:13:41.349Z,96938.41
2017-12-01T12:16:09.104Z,96937.47
2017-12-01T12:18:36.853Z,96941.77
2017-12-01T12:21:04.431Z,96944.77
2017-12-01T12:23:32.007Z,96950.04
2017-12-01T12:25:59.747Z,96951.80
2017-12-01T12:28:27.415Z,96953.74
2017-12-01T12:30:54.944Z,96956.50
2017-12-01T12:33:22.631Z,96953.80
2017-12-01T12:35:50.312Z,96959.58
2017-12-01T12:38:17.958Z,96960.47
2017-12-01T12:40:45.616Z,96964.12
2017-12-01T12:43:13.581Z,96975.52
2017-12-01T12:45:41.549Z,96981.02
2017-12-01T12:48:09.154Z,96977.04
2017-12-01T12:50:36.886Z,96974.94
2017-12-01T12:53:04.486Z,96976.91
2017-12-01T12:55:32.002Z,96979.68
2017-12-01T12:58:00.146Z,96979.81
2017-12-01T13:00:27.666Z,96987.05
2017-12-01T13:02:55.389Z,96976.23
2017-12-01T13:05:22.970Z,96974.31
2017-12-01T13:07:50.508Z,96982.33
2017-12-01T13:10:18.066Z,96983.59
2017-12-01T13:12:46.017Z,96983.77
2017-12-01T13:15:13.594Z,96982.45
2017-12-01T13:17:41.102Z,96976.69
2017-12-01T13:20:09.173Z,96974.83
2017-12-01T13:22:36.698Z,96986.38
2017-12-01T13:25:04.218Z,96985.16
2017-12-01T13:27:31.779Z,96989.52
2017-12-01T13:29:59.464Z,96991.64
2017-12-01T13:32:26.993Z,96985.09
2017-12-01T13:34:54.993Z,96985.68
2017-12-01T13:37:22.545Z,96989.49
2017-12-01T13:39:50.155Z,96990.48
2017-12-01T13:42:18.174Z,96990.75
2017-12-01T13:44:45.835Z,96996.30
2017-12-01T13:47:14.010Z,97008.61
2017-12-01T13:49:41.773Z,97006.89
2017-12-01T13:52:09.503Z,97012.97
2017-12-01T13:54:37.096Z,97009.95
2017-12-01T13:57:04.695Z,97018.69
2017-12-01T13:59:32.223Z,97018.15
2017-12-01T14:01:59.820Z,97023.81
2017-12-01T14:04:27.445Z,97016.45
2017-12-01T14:06:54.994Z,97018.27
2017-12-01T14:09:22.579Z,97029.28
2017-12-01T14:11:50.225Z,97025.20
2017-12-01T14:14:17.805Z,97028.05
2017-12-01T14:16:45.343Z,97034.75
2017-12-01T14:19:13.094Z,97032.35
2017-12-01T14:21:40.647Z,97037.59
2017-12-01T14:24:08.318Z,97038.37
2017-12-01T14:26:36.229Z,97042.77
2017-12-01T14:29:07.523Z,97042.30
2017-12-01T14:31:35.091Z,97050.42
2017-12-01T14:34:02.674Z,97060.52
2017-12-01T14:36:30.311Z,97061.57
2017-12-01T14:38:57.872Z,97065.61
2017-12-01T14:41:25.842Z,97069.29
2017-12-01T14:43:53.414Z,97078.34
2017-12-01T14:46:21.059Z,97085.92
2017-12-01T14:48:49.259Z,97087.23
2017-12-01T14:51:16.843Z,97089.28
2017-12-01T14:53:44.382Z,97099.47
2017-12-01T14:56:12.117Z,97100.04
2017-12-01T14:58:39.659Z,97102.92
2017-12-01T15:01:07.310Z,97104.98
2017-12-01T15:03:34.910Z,97113.13
2017-12-01T15:06:02.687Z,97113.96
2017-12-01T15:08:30.217Z,97115.59
2017-12-01T15:10:57.879Z,97117.67
2017-12-01T15:13:25.623Z,97121.56
2017-12-01T15:15:53.182Z,97119.60
2017-12-01T15:18:20.794Z,97128.84
2017-12-01T15:20:48.628Z,97130.74
2017-12-01T15:23:16.178Z,97134.72
2017-12-01T15:25:43.731Z,97144.86
2017-12-01T15:28:12.431Z,97150.67
2017-12-01T15:30:40.124Z,97149.80
2017-12-01T15:33:07.834Z,97151.47
2017-12-01T15:35:35.478Z,97151.84
2017-12-01T15:38:03.002Z,97159.63
2017-12-01T15:40:30.585Z,97157.13
2017-12-01T15:42:58.297Z,97159.01
2017-12-01T15:45:25.854Z,97166.59
2017-12-01T15:47:53.758Z,97173.81
2017-12-01T15:50:21.511Z,97170.98
2017-12-01T15:52:49.040Z,97174.03
2017-12-01T15:55:16.763Z,97172.00
2017-12-01T15:57:44.475Z,97172.03
2017-12-01T16:00:12.187Z,97171.23
2017-12-01T16:02:40.102Z,97169.17
2017-12-01T16:05:08.022Z,97180.52
2017-12-01T16:07:36.013Z,97180.54
2017-12-01T16:10:04.339Z,97184.31
2017-12-01T16:12:32.098Z,97181.45
2017-12-01T16:15:00.047Z,97186.08
2017-12-01T16:17:27.970Z,97180.73
2017-12-01T16:19:55.984Z,97194.13
2017-12-01T16:22:23.719Z,97190.39
2017-12-01T16:24:51.369Z,97190.41
2017-12-01T16:27:18.968Z,97196.28
2017-12-01T16:29:46.835Z,97190.52
2017-12-01T16:32:14.702Z,97193.02
2017-12-01T16:34:42.260Z,97199.72
2017-12-01T16:37:09.862Z,97203.92
2017-12-01T16:39:37.896Z,97201.84
2017-12-01T16:42:05.452Z,97203.50
2017-12-01T16:44:33.213Z,97207.25
2017-12-01T16:47:01.099Z,97217.24
2017-12-01T16:49:28.639Z,97219.34
2017-12-01T16:51:56.199Z,97225.61
2017-12-01T16:54:24.269Z,97221.02
2017-12-01T16:56:51.845Z,97226.44
2017-12-01T16:59:19.394Z,97224.81
2017-12-01T17:01:47.254Z,97223.19
2017-12-01T17:04:15.036Z,97226.55
2017-12-01T17:06:42.610Z,97227.36
2017-12-01T17:09:10.351Z,97229.89
2017-12-01T17:11:38.221Z,97233.23
2017-12-01T17:14:05.746Z,97230.75
2017-12-01T17:16:33.660Z,97236.98
2017-12-01T17:19:01.413Z,97234.49
2017-12-01T17:21:29.289Z,97237.02
2017-12-01T17:23:57.252Z,97242.00
2017-12-01T17:26:25.346Z,97242.43
2017-12-01T17:28:52.886Z,97247.83
2017-12-01T17:31:20.959Z,97247.83
2017-12-01T17:33:48.522Z,97257.83
2017-12-01T17:36:16.050Z,97262.42
2017-12-01T17:38:43.876Z,97265.31
2017-12-01T17:41:11.554Z,97268.24
2017-12-01T17:43:39.361Z,97273.66
2017-12-01T17:46:07.014Z,97272.83
2017-12-01T17:48:34.668Z,97279.48
2017-12-01T17:51:02.448Z,97277.41
2017-12-01T17:53:30.111Z,97282.02
2017-12-01T17:55:57.854Z,97280.80
2017-12-01T17:58:25.519Z,97284.53
2017-12-01T18:00:53.593Z,97286.59
2017-12-01T18:03:21.171Z,97289.09
2017-12-01T18:05:48.794Z,97291.17
2017-12-01T18:08:16.367Z,97294.09
2017-12-01T18:10:44.027Z,97300.78
2017-12-01T18:13:11.702Z,97301.63
2017-12-01T18:15:39.351Z,97306.19
2017-12-01T18:18:06.926Z,97303.30
2017-12-01T18:20:34.528Z,97309.13
2017-12-01T18:23:02.399Z,97316.16
2017-12-01T18:25:30.109Z,97312.84
2017-12-01T18:27:57.645Z,97310.34
2017-12-01T18:30:25.319Z,97314.92
2017-12-01T18:32:53.902Z,97319.88
2017-12-01T18:35:21.758Z,97322.74
2017-12-01T18:37:49.737Z,97323.52
2017-12-01T18:40:17.434Z,97326.81
2017-12-01T18:42:45.369Z,97331.79
2017-12-01T18:45:13.092Z,97332.95
2017-12-01T18:47:41.203Z,97337.92
2017-12-01T18:50:09.068Z,97336.28
2017-12-01T18:52:37.140Z,97347.84
2017-12-01T18:55:04.916Z,97350.07
2017-12-01T18:57:32.874Z,97355.02
2017-12-01T19:00:00.841Z,97361.30
2017-12-01T19:02:29.011Z,97368.34
2017-12-01T19:04:56.887Z,97359.97
2017-12-01T19:07:25.093Z,97365.34
2017-12-01T19:09:53.127Z,97363.69
2017-12-01T19:12:20.908Z,97360.31
2017-12-01T19:14:48.861Z,97363.55
2017-12-01T19:17:16.623Z,97367.39
2017-12-01T19:19:45.001Z,97362.81
2017-12-01T19:22:12.971Z,97359.52
2017-12-01T19:24:41.349Z,97360.88
2017-12-01T19:27:09.421Z,97362.45
2017-12-01T19:29:37.298Z,97367.41
2017-12-01T19:32:05.564Z,97378.65
2017-12-01T19:34:34.290Z,97369.01
2017-12-01T19:37:02.014Z,97368.53
2017-12-01T19:39:29.626Z,97375.19
2017-12-01T19:41:58.169Z,97372.80
2017-12-01T19:44:26.234Z,97371.08
2017-12-01T19:46:54.162Z,97374.30
2017-12-01T19:49:22.061Z,97371.73
2017-12-01T19:51:50.029Z,97375.49
2017-12-01T19:54:17.997Z,97382.17
2017-12-01T19:56:45.761Z,97388.47
2017-12-01T19:59:13.682Z,97384.69
2017-12-01T20:01:41.533Z,97384.70
2017-12-01T20:04:09.566Z,97385.54
2017-12-01T20:06:37.640Z,97393.85
2017-12-01T20:09:05.512Z,97392.16
2017-12-01T20:11:33.482Z,97394.16
2017-12-01T20:14:02.273Z,97404.18
2017-12-01T20:16:34.136Z,97399.96
2017-12-01T20:19:02.723Z,97404.55
2017-12-01T20:21:30.779Z,97406.22
2017-12-01T20:23:58.654Z,97400.39
2017-12-01T20:26:27.019Z,97407.87
2017-12-01T20:28:55.715Z,97407.04
2017-12-01T20:31:23.571Z,97410.81
2017-12-01T20:33:51.643Z,97409.52
2017-12-01T20:36:19.610Z,97419.98
2017-12-01T20:38:48.209Z,97415.47
2017-12-01T20:41:16.166Z,97412.53
2017-12-01T20:43:44.132Z,97418.80
2017-12-01T20:46:12.483Z,97423.35
2017-12-01T20:48:40.801Z,97417.55
2017-12-01T20:51:09.482Z,97419.26
2017-12-01T20:53:37.345Z,97430.58
2017-12-01T20:56:07.165Z,97433.48
2017-12-01T20:58:35.016Z,97435.56
2017-12-01T21:01:02.983Z,97436.40
2017-12-01T21:03:30.873Z,97437.22
2017-12-01T21:05:58.623Z,97437.59
2017-12-01T21:08:26.206Z,97444.64
2017-12-01T21:10:53.771Z,97446.73
2017-12-01T21:13:21.517Z,97447.56
2017-12-01T21:15:49.060Z,97452.09
2017-12-01T21:18:16.819Z,97447.90
2017-12-01T21:20:44.427Z,97457.92
2017-12-01T21:23:12.144Z,97464.16
2017-12-01T21:25:39.804Z,97466.27
2017-12-01T21:28:07.569Z,97468.70
2017-12-01T21:30:35.846Z,97465.77
2017-12-01T21:33:03.496Z,97463.36
2017-12-01T21:35:31.475Z,97469.67
2017-12-01T21:37:59.239Z,97465.41
2017-12-01T21:40:27.219Z,97462.91
2017-12-01T21:42:55.177Z,97469.56
2017-12-01T21:45:23.147Z,97476.73
2017-12-01T21:47:51.113Z,97472.98
2017-12-01T21:50:18.991Z,97480.08
2017-12-01T21:52:46.578Z,97476.00
2017-12-01T21:55:14.612Z,97480.45
2017-12-01T21:57:42.375Z,97480.03
2017-12-01T22:00:10.094Z,97487.97
2017-12-01T22:02:38.005Z,97496.24
2017-12-01T22:05:05.781Z,97495.86
2017-12-01T22:07:33.632Z,97493.73
2017-12-01T22:10:01.515Z,97487.47
2017-12-01T22:12:29.049Z,97495.41
2017-12-01T22:14:56.741Z,97497.92
2017-12-01T22:17:24.340Z,97497.53
2017-12-01T22:19:52.047Z,97500.14
2017-12-01T22:22:19.605Z,97504.23
2017-12-01T22:24:47.266Z,97507.20
2017-12-01T22:27:14.828Z,97511.34
2017-12-01T22:29:42.431Z,97512.13
2017-12-01T22:32:10.178Z,97514.20
2017-12-01T22:34:37.735Z,97514.58
2017-12-01T22:37:05.520Z,97509.17
2017-12-01T22:39:33.162Z,97511.81
2017-12-01T22:42:00.769Z,97509.81
2017-12-01T22:44:28.354Z,97507.33
2017-12-01T22:46:56.011Z,97511.01
2017-12-01T22:49:23.542Z,97518.89
2017-12-01T22:51:51.343Z,97523.00
2017-12-01T22:54:19.514Z,97525.15
2017-12-01T22:56:47.276Z,97528.48
2017-12-01T22:59:14.841Z,97531.15
2017-12-01T23:01:42.600Z,97534.33
2017-12-01T23:04:10.298Z,97541.78
2017-12-01T23:06:38.799Z,97537.19
2017-12-01T23:09:06.505Z,97540.22
2017-12-01T23:11:34.013Z,97536.02
2017-12-01T23:14:01.950Z,97541.03
2017-12-01T23:16:29.674Z,97531.89
2017-12-01T23:18:57.466Z,97538.98
2017-12-01T23:21:25.547Z,97537.25
2017-12-01T23:23:53.312Z,97539.73
2017-12-01T23:26:20.862Z,97538.11
2017-12-01T23:28:48.515Z,97542.75
2017-12-01T23:31:17.541Z,97545.24
2017-12-01T23:33:45.063Z,97547.66
2017-12-01T23:36:13.480Z,97554.67
2017-12-01T23:38:41.194Z,97554.69
2017-12-01T23:41:09.691Z,97555.52
2017-12-01T23:43:40.324Z,97552.56
2017-12-01T23:46:08.640Z,97552.09
2017-12-01T23:48:36.202Z,97557.13
2017-12-01T23:51:04.120Z,97546.78
2017-12-01T23:53:32.401Z,97554.70
2017-12-01T23:55:59.966Z,97550.93
2017-12-01T23:58:27.581Z,97560.88
